Edgington, Illinois
Current Conditions -  °F | °C
As of 4:52 PM on Tuesday 27 Jan 2015 (Local Time) from KMLI Reporting Station
Haze Haze  
Wind Chill: 20°   Ceiling: 1600
Heat Index: 28°   Visibility: 6mi
Dew Point: 22°   Wind: 8mph
Humidity: 78%   Direction: 70°ENE
Pressure: 30.24"   Gusts: NA
Location:  41.3983°N, 90.7402°W
Report Text: KMLI 272252Z 07007KT 6SM HZ OVC016 M02/M06 A3024 RMK AO2 SLP245 T10221056
Loading
Personal Weather Stations






























Interactive Weather Map New forecast layout! Learn more

10-Day Weather Forecast

Advertisements
Track Severe Weather on mobile